Wellington, FL

12:05 PM EDT on May 25, 2015 (GMT -0400)
Pinewood West | | Change Station
CLOSE
Current Station
Personal Weather Station
Location: Wellington, FL
Elevation: 43 ft
Nearby Weather Stations

Elev 43 ft 26.68 °N, 80.25 °W | Updated 11 seconds ago

Mostly Cloudy
Mostly Cloudy
89.6 °F
Feels Like 86 °F
N
2.0
Wind Variable Wind from East
Gusts 2.5 mph

Today
High -- | Low -- °F
--% Chance of Precip.
Yesterday
High -- | Low -- °F
Precip. -- in
6:29 AM 8:06 PM
Waxing Crescent, 49% visible
Pressure 30.20 in
Visibility 10.0 miles
Clouds Scattered Clouds 2300 ft
Mostly Cloudy 2900 ft
Mostly Cloudy 25000 ft
Heat Index 86 °F
Dew Point 26 °F
Humidity 10%
Rainfall 0.00 in
Snow Depth Not available.
UV 6.0 out of 12
Pollen 5.10 out of 12
Air Quality Not available.
Flu Activity Sporadic
METAR KPBI 251553Z 12015G20KT 10SM SCT023 BKN029 BKN250 30/23 A3020 RMK AO2 SLP225 T03000228

More Conditions Fewer Conditions

Pressure 30.20 in
Visibility 10.0 miles
Clouds Scattered Clouds 2300 ft
Mostly Cloudy 2900 ft
Mostly Cloudy 25000 ft
Heat Index 86 °F
Dew Point 26 °F
Humidity 10%
Rainfall 0.00 in
Snow Depth Not available.
UV 6.0 out of 12
Pollen 5.10 out of 12
Air Quality Not available.
Flu Activity Sporadic
METAR KPBI 251553Z 12015G20KT 10SM SCT023 BKN029 BKN250 30/23 A3020 RMK AO2 SLP225 T03000228

More Conditions Fewer Conditions

10-Day Weather Forecast

Almanac

Astronomy

May. 25, 2015 Rise Set
Actual Time
Civil Twilight
Nautical Twilight
Astronomical Twilight
Moon
Length of Visible Light
Length of Day
Tomorrow will be .
, % of the Moon is Illuminated

Today's Extremes

State Highs State Lows

Community

WunderPhotos

Upload Photos

1,824,033 photos uploaded!

WunderBlogs® & News

Nearby

Air Quality

  Air Quality AQ Index Pollutant
Not available.

Snow Depth

Station Depth Elevation

Earthquake Activity

City Distance Mag. Time & Date
Minimum magnitude displayed is 2.5.

Coastal Water Temperatures

Place Temperature

Stations

Nearby Weather Stations

Station Location Temp. Windchill Dew Point Humidity Wind Precip. Elev Updated Type